sensor_id;sensor_type;location;lat;lon;timestamp;P1;durP1;ratioP1;P2;durP2;ratioP2
78646;SDS011;67961;43.460;3.762;2023-05-21T00:02:07;6.47;;;2.63;;
78646;SDS011;67961;43.460;3.762;2023-05-21T00:04:36;5.43;;;2.47;;
78646;SDS011;67961;43.460;3.762;2023-05-21T00:07:04;2.88;;;2.50;;
78646;SDS011;67961;43.460;3.762;2023-05-21T00:09:30;5.00;;;2.42;;
78646;SDS011;67961;43.460;3.762;2023-05-21T00:11:56;3.75;;;2.20;;
78646;SDS011;67961;43.460;3.762;2023-05-21T00:14:22;4.57;;;2.67;;
78646;SDS011;67961;43.460;3.762;2023-05-21T00:16:47;6.60;;;2.97;;
78646;SDS011;67961;43.460;3.762;2023-05-21T00:19:13;9.57;;;2.50;;
78646;SDS011;67961;43.460;3.762;2023-05-21T00:21:39;2.95;;;2.28;;
78646;SDS011;67961;43.460;3.762;2023-05-21T00:24:05;5.57;;;3.03;;
78646;SDS011;67961;43.460;3.762;2023-05-21T00:26:31;5.53;;;2.85;;
78646;SDS011;67961;43.460;3.762;2023-05-21T00:28:56;4.05;;;2.60;;
78646;SDS011;67961;43.460;3.762;2023-05-21T00:31:22;4.75;;;2.17;;
78646;SDS011;67961;43.460;3.762;2023-05-21T00:33:48;4.13;;;2.75;;
78646;SDS011;67961;43.460;3.762;2023-05-21T00:36:13;3.28;;;2.53;;
78646;SDS011;67961;43.460;3.762;2023-05-21T00:38:39;4.60;;;2.50;;
78646;SDS011;67961;43.460;3.762;2023-05-21T00:41:09;4.53;;;2.85;;
78646;SDS011;67961;43.460;3.762;2023-05-21T00:43:35;3.92;;;2.67;;
78646;SDS011;67961;43.460;3.762;2023-05-21T00:46:05;4.82;;;2.80;;
78646;SDS011;67961;43.460;3.762;2023-05-21T00:48:31;10.25;;;3.20;;
78646;SDS011;67961;43.460;3.762;2023-05-21T00:50:57;7.30;;;3.17;;
78646;SDS011;67961;43.460;3.762;2023-05-21T00:53:23;4.20;;;2.67;;
78646;SDS011;67961;43.460;3.762;2023-05-21T00:55:49;6.03;;;2.97;;
78646;SDS011;67961;43.460;3.762;2023-05-21T00:58:15;6.97;;;3.00;;
78646;SDS011;67961;43.460;3.762;2023-05-21T01:00:42;6.07;;;3.45;;
78646;SDS011;67961;43.460;3.762;2023-05-21T01:03:07;4.30;;;2.80;;
78646;SDS011;67961;43.460;3.762;2023-05-21T01:05:34;4.13;;;2.75;;
78646;SDS011;67961;43.460;3.762;2023-05-21T01:08:00;4.25;;;2.65;;
78646;SDS011;67961;43.460;3.762;2023-05-21T01:10:27;3.70;;;2.53;;
78646;SDS011;67961;43.460;3.762;2023-05-21T01:12:54;5.60;;;2.95;;
78646;SDS011;67961;43.460;3.762;2023-05-21T01:15:22;4.88;;;2.75;;
78646;SDS011;67961;43.460;3.762;2023-05-21T01:17:48;4.32;;;2.70;;
78646;SDS011;67961;43.460;3.762;2023-05-21T01:20:15;3.83;;;2.80;;
78646;SDS011;67961;43.460;3.762;2023-05-21T01:23:00;3.55;;;2.50;;
78646;SDS011;67961;43.460;3.762;2023-05-21T01:25:27;5.25;;;2.88;;
78646;SDS011;67961;43.460;3.762;2023-05-21T01:27:52;2.40;;;2.20;;
78646;SDS011;67961;43.460;3.762;2023-05-21T01:30:18;3.85;;;2.60;;
78646;SDS011;67961;43.460;3.762;2023-05-21T01:35:25;2.83;;;2.40;;
78646;SDS011;67961;43.460;3.762;2023-05-21T01:38:11;4.22;;;2.33;;
78646;SDS011;67961;43.460;3.762;2023-05-21T01:43:27;3.67;;;2.63;;
78646;SDS011;67961;43.460;3.762;2023-05-21T01:45:55;4.75;;;2.20;;
78646;SDS011;67961;43.460;3.762;2023-05-21T01:48:22;4.90;;;2.60;;
78646;SDS011;67961;43.460;3.762;2023-05-21T01:50:51;3.40;;;2.38;;
78646;SDS011;67961;43.460;3.762;2023-05-21T01:53:19;2.53;;;2.22;;
78646;SDS011;67961;43.460;3.762;2023-05-21T01:55:45;2.40;;;2.20;;
78646;SDS011;67961;43.460;3.762;2023-05-21T01:58:11;3.35;;;2.42;;
78646;SDS011;67961;43.460;3.762;2023-05-21T02:00:36;5.55;;;2.80;;
78646;SDS011;67961;43.460;3.762;2023-05-21T02:03:03;4.85;;;2.50;;
78646;SDS011;67961;43.460;3.762;2023-05-21T02:05:29;2.22;;;2.03;;
78646;SDS011;67961;43.460;3.762;2023-05-21T02:07:55;5.07;;;2.17;;
78646;SDS011;67961;43.460;3.762;2023-05-21T02:10:21;5.90;;;2.75;;
78646;SDS011;67961;43.460;3.762;2023-05-21T02:12:46;5.22;;;2.40;;
78646;SDS011;67961;43.460;3.762;2023-05-21T02:15:12;3.42;;;2.53;;
78646;SDS011;67961;43.460;3.762;2023-05-21T02:17:38;4.38;;;2.38;;
78646;SDS011;67961;43.460;3.762;2023-05-21T02:20:04;3.97;;;2.53;;
78646;SDS011;67961;43.460;3.762;2023-05-21T02:22:36;2.97;;;2.00;;
78646;SDS011;67961;43.460;3.762;2023-05-21T02:25:06;2.80;;;2.60;;
78646;SDS011;67961;43.460;3.762;2023-05-21T02:27:33;5.22;;;2.65;;
78646;SDS011;67961;43.460;3.762;2023-05-21T02:30:00;2.80;;;2.50;;
78646;SDS011;67961;43.460;3.762;2023-05-21T02:32:28;3.55;;;2.55;;
78646;SDS011;67961;43.460;3.762;2023-05-21T02:34:56;6.10;;;2.45;;
78646;SDS011;67961;43.460;3.762;2023-05-21T02:37:22;4.35;;;2.92;;
78646;SDS011;67961;43.460;3.762;2023-05-21T02:39:49;3.13;;;2.30;;
78646;SDS011;67961;43.460;3.762;2023-05-21T02:42:15;3.05;;;2.75;;
78646;SDS011;67961;43.460;3.762;2023-05-21T02:44:40;6.30;;;2.70;;
78646;SDS011;67961;43.460;3.762;2023-05-21T02:47:06;4.28;;;2.60;;
78646;SDS011;67961;43.460;3.762;2023-05-21T02:49:34;4.25;;;2.88;;
78646;SDS011;67961;43.460;3.762;2023-05-21T02:52:00;5.07;;;2.65;;
78646;SDS011;67961;43.460;3.762;2023-05-21T02:54:25;2.95;;;2.60;;
78646;SDS011;67961;43.460;3.762;2023-05-21T02:56:51;2.95;;;2.45;;
78646;SDS011;67961;43.460;3.762;2023-05-21T02:59:17;2.65;;;2.40;;
78646;SDS011;67961;43.460;3.762;2023-05-21T03:01:42;3.45;;;2.60;;
78646;SDS011;67961;43.460;3.762;2023-05-21T03:04:09;3.15;;;2.83;;
78646;SDS011;67961;43.460;3.762;2023-05-21T03:06:35;3.25;;;2.92;;
78646;SDS011;67961;43.460;3.762;2023-05-21T03:09:01;4.75;;;3.05;;
78646;SDS011;67961;43.460;3.762;2023-05-21T03:11:27;3.55;;;2.95;;
78646;SDS011;67961;43.460;3.762;2023-05-21T03:13:53;8.10;;;3.90;;
78646;SDS011;67961;43.460;3.762;2023-05-21T03:16:18;4.15;;;3.38;;
78646;SDS011;67961;43.460;3.762;2023-05-21T03:18:44;5.68;;;3.40;;
78646;SDS011;67961;43.460;3.762;2023-05-21T03:21:10;5.40;;;3.20;;
78646;SDS011;67961;43.460;3.762;2023-05-21T03:23:39;5.30;;;3.72;;
78646;SDS011;67961;43.460;3.762;2023-05-21T03:26:06;5.82;;;3.60;;
78646;SDS011;67961;43.460;3.762;2023-05-21T03:28:32;4.45;;;3.50;;
78646;SDS011;67961;43.460;3.762;2023-05-21T03:30:58;4.57;;;4.10;;
78646;SDS011;67961;43.460;3.762;2023-05-21T03:33:24;6.10;;;3.65;;
78646;SDS011;67961;43.460;3.762;2023-05-21T03:35:49;6.05;;;3.75;;
78646;SDS011;67961;43.460;3.762;2023-05-21T03:38:15;4.35;;;3.17;;
78646;SDS011;67961;43.460;3.762;2023-05-21T03:40:41;4.95;;;3.38;;
78646;SDS011;67961;43.460;3.762;2023-05-21T03:43:06;5.65;;;3.63;;
78646;SDS011;67961;43.460;3.762;2023-05-21T03:45:32;6.20;;;3.50;;
78646;SDS011;67961;43.460;3.762;2023-05-21T03:47:57;9.32;;;3.83;;
78646;SDS011;67961;43.460;3.762;2023-05-21T03:50:23;5.38;;;3.28;;
78646;SDS011;67961;43.460;3.762;2023-05-21T03:52:49;4.70;;;3.25;;
78646;SDS011;67961;43.460;3.762;2023-05-21T03:55:14;4.65;;;3.45;;
78646;SDS011;67961;43.460;3.762;2023-05-21T03:57:40;3.85;;;3.28;;
78646;SDS011;67961;43.460;3.762;2023-05-21T04:00:06;4.10;;;3.38;;
78646;SDS011;67961;43.460;3.762;2023-05-21T04:02:32;6.35;;;3.30;;
78646;SDS011;67961;43.460;3.762;2023-05-21T04:04:58;6.03;;;3.53;;
78646;SDS011;67961;43.460;3.762;2023-05-21T04:07:24;4.35;;;3.50;;
78646;SDS011;67961;43.460;3.762;2023-05-21T04:09:51;4.63;;;3.45;;
78646;SDS011;67961;43.460;3.762;2023-05-21T04:12:17;3.95;;;3.40;;
78646;SDS011;67961;43.460;3.762;2023-05-21T04:14:44;5.78;;;3.42;;
78646;SDS011;67961;43.460;3.762;2023-05-21T04:17:10;4.75;;;3.17;;
78646;SDS011;67961;43.460;3.762;2023-05-21T04:19:39;4.80;;;3.58;;
78646;SDS011;67961;43.460;3.762;2023-05-21T04:22:04;4.65;;;3.40;;
78646;SDS011;67961;43.460;3.762;2023-05-21T04:24:30;4.90;;;3.40;;
78646;SDS011;67961;43.460;3.762;2023-05-21T04:26:56;6.13;;;3.47;;
78646;SDS011;67961;43.460;3.762;2023-05-21T04:29:25;9.23;;;4.00;;
78646;SDS011;67961;43.460;3.762;2023-05-21T04:31:51;4.22;;;3.22;;
78646;SDS011;67961;43.460;3.762;2023-05-21T04:34:17;5.05;;;3.60;;
78646;SDS011;67961;43.460;3.762;2023-05-21T04:36:43;5.28;;;3.70;;
78646;SDS011;67961;43.460;3.762;2023-05-21T04:39:10;5.10;;;3.60;;
78646;SDS011;67961;43.460;3.762;2023-05-21T04:41:36;6.95;;;3.97;;
78646;SDS011;67961;43.460;3.762;2023-05-21T04:44:03;6.63;;;3.63;;
78646;SDS011;67961;43.460;3.762;2023-05-21T04:46:32;3.80;;;3.15;;
78646;SDS011;67961;43.460;3.762;2023-05-21T04:48:59;3.85;;;3.25;;
78646;SDS011;67961;43.460;3.762;2023-05-21T04:51:28;4.78;;;3.30;;
78646;SDS011;67961;43.460;3.762;2023-05-21T04:53:54;4.68;;;3.35;;
78646;SDS011;67961;43.460;3.762;2023-05-21T04:56:20;5.45;;;4.05;;
78646;SDS011;67961;43.460;3.762;2023-05-21T04:58:51;5.03;;;3.13;;
78646;SDS011;67961;43.460;3.762;2023-05-21T05:01:20;7.47;;;4.10;;
78646;SDS011;67961;43.460;3.762;2023-05-21T05:03:47;5.55;;;3.10;;
78646;SDS011;67961;43.460;3.762;2023-05-21T05:06:13;5.50;;;3.35;;
78646;SDS011;67961;43.460;3.762;2023-05-21T05:08:39;4.35;;;3.42;;
78646;SDS011;67961;43.460;3.762;2023-05-21T05:11:06;4.10;;;3.45;;
78646;SDS011;67961;43.460;3.762;2023-05-21T05:13:32;5.28;;;3.60;;
78646;SDS011;67961;43.460;3.762;2023-05-21T05:15:58;4.72;;;3.72;;
78646;SDS011;67961;43.460;3.762;2023-05-21T05:18:24;4.30;;;3.42;;
78646;SDS011;67961;43.460;3.762;2023-05-21T05:20:50;5.18;;;3.75;;
78646;SDS011;67961;43.460;3.762;2023-05-21T05:23:15;4.38;;;3.63;;
78646;SDS011;67961;43.460;3.762;2023-05-21T05:25:41;4.43;;;3.50;;
78646;SDS011;67961;43.460;3.762;2023-05-21T05:28:07;8.07;;;3.50;;
78646;SDS011;67961;43.460;3.762;2023-05-21T05:30:32;3.67;;;3.38;;
78646;SDS011;67961;43.460;3.762;2023-05-21T05:32:59;4.25;;;3.20;;
78646;SDS011;67961;43.460;3.762;2023-05-21T05:35:25;5.55;;;3.47;;
78646;SDS011;67961;43.460;3.762;2023-05-21T05:37:50;4.45;;;3.70;;
78646;SDS011;67961;43.460;3.762;2023-05-21T05:40:16;4.50;;;3.45;;
78646;SDS011;67961;43.460;3.762;2023-05-21T05:42:42;4.18;;;3.63;;
78646;SDS011;67961;43.460;3.762;2023-05-21T05:45:08;4.05;;;3.28;;
78646;SDS011;67961;43.460;3.762;2023-05-21T05:47:34;3.67;;;3.00;;
78646;SDS011;67961;43.460;3.762;2023-05-21T05:50:00;4.10;;;3.70;;
78646;SDS011;67961;43.460;3.762;2023-05-21T05:52:25;4.25;;;3.63;;
78646;SDS011;67961;43.460;3.762;2023-05-21T05:54:51;4.95;;;3.53;;
78646;SDS011;67961;43.460;3.762;2023-05-21T05:57:17;5.68;;;4.38;;
78646;SDS011;67961;43.460;3.762;2023-05-21T05:59:42;3.95;;;3.50;;
78646;SDS011;67961;43.460;3.762;2023-05-21T06:02:08;4.70;;;4.07;;
78646;SDS011;67961;43.460;3.762;2023-05-21T06:04:33;4.43;;;3.42;;
78646;SDS011;67961;43.460;3.762;2023-05-21T06:06:59;4.88;;;3.80;;
78646;SDS011;67961;43.460;3.762;2023-05-21T06:09:25;5.30;;;3.45;;
78646;SDS011;67961;43.460;3.762;2023-05-21T06:11:51;3.55;;;3.22;;
78646;SDS011;67961;43.460;3.762;2023-05-21T06:14:16;4.35;;;3.20;;
78646;SDS011;67961;43.460;3.762;2023-05-21T06:16:42;4.85;;;3.88;;
78646;SDS011;67961;43.460;3.762;2023-05-21T06:19:07;6.47;;;3.67;;
78646;SDS011;67961;43.460;3.762;2023-05-21T06:21:33;9.90;;;4.40;;
78646;SDS011;67961;43.460;3.762;2023-05-21T06:23:59;6.88;;;3.83;;
78646;SDS011;67961;43.460;3.762;2023-05-21T06:26:24;3.92;;;3.20;;
78646;SDS011;67961;43.460;3.762;2023-05-21T06:28:50;4.47;;;3.70;;
78646;SDS011;67961;43.460;3.762;2023-05-21T06:31:16;4.60;;;3.10;;
78646;SDS011;67961;43.460;3.762;2023-05-21T06:33:41;5.95;;;3.58;;
78646;SDS011;67961;43.460;3.762;2023-05-21T06:36:07;3.70;;;3.40;;
78646;SDS011;67961;43.460;3.762;2023-05-21T06:38:33;4.05;;;3.13;;
78646;SDS011;67961;43.460;3.762;2023-05-21T06:40:58;4.30;;;3.45;;
78646;SDS011;67961;43.460;3.762;2023-05-21T06:43:24;4.35;;;3.35;;
78646;SDS011;67961;43.460;3.762;2023-05-21T06:45:50;6.75;;;3.60;;
78646;SDS011;67961;43.460;3.762;2023-05-21T06:48:15;6.05;;;3.50;;
78646;SDS011;67961;43.460;3.762;2023-05-21T06:50:41;4.10;;;3.47;;
78646;SDS011;67961;43.460;3.762;2023-05-21T06:53:07;4.68;;;3.65;;
78646;SDS011;67961;43.460;3.762;2023-05-21T06:55:34;3.35;;;3.05;;
78646;SDS011;67961;43.460;3.762;2023-05-21T06:57:59;4.38;;;3.22;;
78646;SDS011;67961;43.460;3.762;2023-05-21T07:00:25;4.50;;;3.83;;
78646;SDS011;67961;43.460;3.762;2023-05-21T07:02:51;5.10;;;3.35;;
78646;SDS011;67961;43.460;3.762;2023-05-21T07:05:17;5.25;;;3.67;;
78646;SDS011;67961;43.460;3.762;2023-05-21T07:07:42;4.38;;;3.35;;
78646;SDS011;67961;43.460;3.762;2023-05-21T07:10:08;5.88;;;3.90;;
78646;SDS011;67961;43.460;3.762;2023-05-21T07:12:34;4.57;;;3.42;;
78646;SDS011;67961;43.460;3.762;2023-05-21T07:15:00;4.63;;;3.75;;
78646;SDS011;67961;43.460;3.762;2023-05-21T07:17:26;4.45;;;3.75;;
78646;SDS011;67961;43.460;3.762;2023-05-21T07:19:51;4.47;;;3.80;;
78646;SDS011;67961;43.460;3.762;2023-05-21T07:22:17;6.03;;;3.90;;
78646;SDS011;67961;43.460;3.762;2023-05-21T07:24:43;6.30;;;3.67;;
78646;SDS011;67961;43.460;3.762;2023-05-21T07:27:08;5.25;;;3.92;;
78646;SDS011;67961;43.460;3.762;2023-05-21T07:29:34;5.68;;;3.88;;
78646;SDS011;67961;43.460;3.762;2023-05-21T07:32:00;7.28;;;4.22;;
78646;SDS011;67961;43.460;3.762;2023-05-21T07:34:26;4.78;;;4.00;;
78646;SDS011;67961;43.460;3.762;2023-05-21T07:36:52;7.80;;;3.92;;
78646;SDS011;67961;43.460;3.762;2023-05-21T07:39:18;5.88;;;3.90;;
78646;SDS011;67961;43.460;3.762;2023-05-21T07:41:43;5.57;;;4.20;;
78646;SDS011;67961;43.460;3.762;2023-05-21T07:44:09;4.32;;;3.92;;
78646;SDS011;67961;43.460;3.762;2023-05-21T07:46:35;4.15;;;3.75;;
78646;SDS011;67961;43.460;3.762;2023-05-21T07:49:00;6.20;;;3.80;;
78646;SDS011;67961;43.460;3.762;2023-05-21T07:51:26;5.20;;;4.25;;
78646;SDS011;67961;43.460;3.762;2023-05-21T07:53:52;6.45;;;4.10;;
78646;SDS011;67961;43.460;3.762;2023-05-21T07:56:18;5.75;;;4.18;;
78646;SDS011;67961;43.460;3.762;2023-05-21T07:58:44;4.45;;;4.05;;
78646;SDS011;67961;43.460;3.762;2023-05-21T08:01:13;4.40;;;4.00;;
78646;SDS011;67961;43.460;3.762;2023-05-21T08:03:39;4.55;;;3.67;;
78646;SDS011;67961;43.460;3.762;2023-05-21T08:06:05;3.80;;;3.45;;
78646;SDS011;67961;43.460;3.762;2023-05-21T08:08:30;4.03;;;3.60;;
78646;SDS011;67961;43.460;3.762;2023-05-21T08:10:56;4.28;;;3.70;;
78646;SDS011;67961;43.460;3.762;2023-05-21T08:13:22;7.30;;;4.30;;
78646;SDS011;67961;43.460;3.762;2023-05-21T08:15:48;4.30;;;3.40;;
78646;SDS011;67961;43.460;3.762;2023-05-21T08:18:13;4.65;;;3.65;;
78646;SDS011;67961;43.460;3.762;2023-05-21T08:20:41;4.93;;;3.97;;
78646;SDS011;67961;43.460;3.762;2023-05-21T08:23:07;4.38;;;3.65;;
78646;SDS011;67961;43.460;3.762;2023-05-21T08:25:32;4.15;;;3.75;;
78646;SDS011;67961;43.460;3.762;2023-05-21T08:27:58;4.75;;;3.83;;
78646;SDS011;67961;43.460;3.762;2023-05-21T08:30:24;3.95;;;3.55;;
78646;SDS011;67961;43.460;3.762;2023-05-21T08:32:49;4.32;;;3.58;;
78646;SDS011;67961;43.460;3.762;2023-05-21T08:35:15;4.88;;;3.30;;
78646;SDS011;67961;43.460;3.762;2023-05-21T08:37:41;6.00;;;3.50;;
78646;SDS011;67961;43.460;3.762;2023-05-21T08:40:07;4.43;;;3.60;;
78646;SDS011;67961;43.460;3.762;2023-05-21T08:45:13;5.65;;;3.88;;
78646;SDS011;67961;43.460;3.762;2023-05-21T08:47:43;4.40;;;3.63;;
78646;SDS011;67961;43.460;3.762;2023-05-21T08:50:11;4.93;;;3.78;;
78646;SDS011;67961;43.460;3.762;2023-05-21T08:52:38;4.97;;;4.20;;
78646;SDS011;67961;43.460;3.762;2023-05-21T08:55:05;4.03;;;3.58;;
78646;SDS011;67961;43.460;3.762;2023-05-21T08:57:31;6.40;;;4.10;;
78646;SDS011;67961;43.460;3.762;2023-05-21T08:59:58;4.13;;;3.38;;
78646;SDS011;67961;43.460;3.762;2023-05-21T09:02:24;4.40;;;3.60;;
78646;SDS011;67961;43.460;3.762;2023-05-21T09:04:50;3.72;;;3.35;;
78646;SDS011;67961;43.460;3.762;2023-05-21T09:07:21;3.47;;;3.17;;
78646;SDS011;67961;43.460;3.762;2023-05-21T09:10:02;4.20;;;3.38;;
78646;SDS011;67961;43.460;3.762;2023-05-21T09:12:32;5.75;;;3.42;;
78646;SDS011;67961;43.460;3.762;2023-05-21T09:14:59;3.30;;;2.92;;
78646;SDS011;67961;43.460;3.762;2023-05-21T09:17:25;4.25;;;3.40;;
78646;SDS011;67961;43.460;3.762;2023-05-21T09:20:10;4.85;;;3.25;;
78646;SDS011;67961;43.460;3.762;2023-05-21T09:22:41;4.93;;;3.20;;
78646;SDS011;67961;43.460;3.762;2023-05-21T09:25:12;6.07;;;3.72;;
78646;SDS011;67961;43.460;3.762;2023-05-21T09:27:39;3.72;;;3.42;;
78646;SDS011;67961;43.460;3.762;2023-05-21T09:30:09;5.13;;;3.78;;
78646;SDS011;67961;43.460;3.762;2023-05-21T09:32:39;4.20;;;3.45;;
78646;SDS011;67961;43.460;3.762;2023-05-21T09:35:06;5.78;;;3.10;;
78646;SDS011;67961;43.460;3.762;2023-05-21T09:37:40;3.53;;;3.10;;
78646;SDS011;67961;43.460;3.762;2023-05-21T09:40:16;4.03;;;3.47;;
78646;SDS011;67961;43.460;3.762;2023-05-21T09:42:44;3.50;;;3.20;;
78646;SDS011;67961;43.460;3.762;2023-05-21T09:45:10;4.05;;;3.42;;
78646;SDS011;67961;43.460;3.762;2023-05-21T09:47:40;4.18;;;3.00;;
78646;SDS011;67961;43.460;3.762;2023-05-21T09:50:07;3.45;;;2.85;;
78646;SDS011;67961;43.460;3.762;2023-05-21T09:52:37;3.17;;;2.83;;
78646;SDS011;67961;43.460;3.762;2023-05-21T09:55:07;3.67;;;3.05;;
78646;SDS011;67961;43.460;3.762;2023-05-21T10:00:09;3.58;;;2.90;;
78646;SDS011;67961;43.460;3.762;2023-05-21T10:02:45;3.30;;;2.63;;
78646;SDS011;67961;43.460;3.762;2023-05-21T10:05:33;3.08;;;2.60;;
78646;SDS011;67961;43.460;3.762;2023-05-21T10:08:01;3.50;;;3.20;;
78646;SDS011;67961;43.460;3.762;2023-05-21T10:10:28;6.40;;;3.97;;
78646;SDS011;67961;43.460;3.762;2023-05-21T10:13:13;7.88;;;5.22;;
78646;SDS011;67961;43.460;3.762;2023-05-21T10:15:43;5.10;;;3.88;;
78646;SDS011;67961;43.460;3.762;2023-05-21T10:18:12;4.70;;;3.05;;
78646;SDS011;67961;43.460;3.762;2023-05-21T10:20:37;2.72;;;2.53;;
78646;SDS011;67961;43.460;3.762;2023-05-21T10:23:04;3.25;;;2.67;;
78646;SDS011;67961;43.460;3.762;2023-05-21T10:25:30;4.38;;;2.67;;
78646;SDS011;67961;43.460;3.762;2023-05-21T10:27:56;4.50;;;3.15;;
78646;SDS011;67961;43.460;3.762;2023-05-21T10:30:23;3.58;;;2.97;;
78646;SDS011;67961;43.460;3.762;2023-05-21T10:32:49;3.47;;;3.13;;
78646;SDS011;67961;43.460;3.762;2023-05-21T10:35:15;2.95;;;2.65;;
78646;SDS011;67961;43.460;3.762;2023-05-21T10:37:45;3.70;;;3.15;;
78646;SDS011;67961;43.460;3.762;2023-05-21T10:40:11;3.13;;;2.67;;
78646;SDS011;67961;43.460;3.762;2023-05-21T10:53:43;2.17;;;1.90;;
78646;SDS011;67961;43.460;3.762;2023-05-21T10:59:41;1.80;;;1.70;;
78646;SDS011;67961;43.460;3.762;2023-05-21T11:02:11;1.60;;;1.50;;
78646;SDS011;67961;43.460;3.762;2023-05-21T11:04:39;1.30;;;1.30;;
78646;SDS011;67961;43.460;3.762;2023-05-21T11:07:07;1.95;;;1.25;;
78646;SDS011;67961;43.460;3.762;2023-05-21T11:09:33;1.50;;;1.40;;
78646;SDS011;67961;43.460;3.762;2023-05-21T11:11:59;1.60;;;1.50;;
78646;SDS011;67961;43.460;3.762;2023-05-21T11:14:35;1.15;;;1.15;;
78646;SDS011;67961;43.460;3.762;2023-05-21T11:22:04;1.30;;;1.20;;
78646;SDS011;67961;43.460;3.762;2023-05-21T11:24:32;3.00;;;1.70;;
78646;SDS011;67961;43.460;3.762;2023-05-21T11:27:02;1.60;;;1.50;;
78646;SDS011;67961;43.460;3.762;2023-05-21T11:29:36;2.38;;;1.48;;
78646;SDS011;67961;43.460;3.762;2023-05-21T11:32:05;1.23;;;1.13;;
78646;SDS011;67961;43.460;3.762;2023-05-21T11:34:35;1.00;;;0.98;;
78646;SDS011;67961;43.460;3.762;2023-05-21T11:39:54;1.25;;;1.25;;
78646;SDS011;67961;43.460;3.762;2023-05-21T11:42:28;2.75;;;1.60;;
78646;SDS011;67961;43.460;3.762;2023-05-21T11:45:03;1.63;;;1.52;;
78646;SDS011;67961;43.460;3.762;2023-05-21T11:47:29;2.67;;;2.30;;
78646;SDS011;67961;43.460;3.762;2023-05-21T11:49:57;4.85;;;1.83;;
78646;SDS011;67961;43.460;3.762;2023-05-21T11:52:26;1.50;;;1.40;;
78646;SDS011;67961;43.460;3.762;2023-05-21T11:54:56;1.55;;;1.45;;
78646;SDS011;67961;43.460;3.762;2023-05-21T11:57:27;1.48;;;1.20;;
78646;SDS011;67961;43.460;3.762;2023-05-21T11:59:55;1.10;;;1.10;;
78646;SDS011;67961;43.460;3.762;2023-05-21T12:02:23;0.95;;;0.95;;
78646;SDS011;67961;43.460;3.762;2023-05-21T12:04:51;0.93;;;0.93;;
78646;SDS011;67961;43.460;3.762;2023-05-21T12:07:17;1.08;;;1.05;;
78646;SDS011;67961;43.460;3.762;2023-05-21T12:09:49;1.17;;;1.10;;
78646;SDS011;67961;43.460;3.762;2023-05-21T12:12:19;1.15;;;1.05;;
78646;SDS011;67961;43.460;3.762;2023-05-21T12:14:49;1.50;;;1.40;;
78646;SDS011;67961;43.460;3.762;2023-05-21T12:17:17;1.42;;;1.35;;
78646;SDS011;67961;43.460;3.762;2023-05-21T12:19:44;1.35;;;1.33;;
78646;SDS011;67961;43.460;3.762;2023-05-21T12:22:10;1.55;;;1.35;;
78646;SDS011;67961;43.460;3.762;2023-05-21T12:24:37;3.25;;;1.50;;
78646;SDS011;67961;43.460;3.762;2023-05-21T12:27:03;1.20;;;1.10;;
78646;SDS011;67961;43.460;3.762;2023-05-21T12:29:36;1.17;;;1.10;;
78646;SDS011;67961;43.460;3.762;2023-05-21T12:32:06;1.33;;;1.33;;
78646;SDS011;67961;43.460;3.762;2023-05-21T12:34:40;3.80;;;1.10;;
78646;SDS011;67961;43.460;3.762;2023-05-21T12:39:48;2.67;;;1.80;;
78646;SDS011;67961;43.460;3.762;2023-05-21T12:42:15;1.70;;;1.60;;
78646;SDS011;67961;43.460;3.762;2023-05-21T12:44:45;1.75;;;1.50;;
78646;SDS011;67961;43.460;3.762;2023-05-21T12:47:11;1.63;;;1.50;;
78646;SDS011;67961;43.460;3.762;2023-05-21T12:49:44;1.70;;;1.60;;
78646;SDS011;67961;43.460;3.762;2023-05-21T12:52:12;1.33;;;1.23;;
78646;SDS011;67961;43.460;3.762;2023-05-21T12:54:43;2.40;;;1.50;;
78646;SDS011;67961;43.460;3.762;2023-05-21T12:59:50;2.28;;;1.27;;
78646;SDS011;67961;43.460;3.762;2023-05-21T13:05:02;2.17;;;1.85;;
78646;SDS011;67961;43.460;3.762;2023-05-21T13:07:33;2.20;;;1.85;;
78646;SDS011;67961;43.460;3.762;2023-05-21T13:10:00;2.47;;;1.80;;
78646;SDS011;67961;43.460;3.762;2023-05-21T13:12:27;1.67;;;1.58;;
78646;SDS011;67961;43.460;3.762;2023-05-21T13:14:55;1.60;;;1.50;;
78646;SDS011;67961;43.460;3.762;2023-05-21T13:17:22;1.92;;;1.80;;
78646;SDS011;67961;43.460;3.762;2023-05-21T13:20:08;2.75;;;1.60;;
78646;SDS011;67961;43.460;3.762;2023-05-21T13:25:11;1.95;;;1.70;;
78646;SDS011;67961;43.460;3.762;2023-05-21T13:27:45;2.97;;;1.75;;
78646;SDS011;67961;43.460;3.762;2023-05-21T13:30:11;2.00;;;1.65;;
78646;SDS011;67961;43.460;3.762;2023-05-21T13:32:37;1.75;;;1.65;;
78646;SDS011;67961;43.460;3.762;2023-05-21T13:35:04;2.08;;;1.60;;
78646;SDS011;67961;43.460;3.762;2023-05-21T13:37:30;1.75;;;1.63;;
78646;SDS011;67961;43.460;3.762;2023-05-21T13:39:57;1.80;;;1.70;;
78646;SDS011;67961;43.460;3.762;2023-05-21T13:42:23;1.70;;;1.60;;
78646;SDS011;67961;43.460;3.762;2023-05-21T13:44:49;4.22;;;1.92;;
78646;SDS011;67961;43.460;3.762;2023-05-21T13:47:14;3.58;;;1.70;;
78646;SDS011;67961;43.460;3.762;2023-05-21T13:49:40;4.20;;;1.75;;
78646;SDS011;67961;43.460;3.762;2023-05-21T13:52:07;1.90;;;1.80;;
78646;SDS011;67961;43.460;3.762;2023-05-21T13:54:33;1.83;;;1.70;;
78646;SDS011;67961;43.460;3.762;2023-05-21T13:56:59;2.13;;;1.92;;
78646;SDS011;67961;43.460;3.762;2023-05-21T13:59:25;1.80;;;1.70;;
78646;SDS011;67961;43.460;3.762;2023-05-21T14:01:50;1.92;;;1.75;;
78646;SDS011;67961;43.460;3.762;2023-05-21T14:04:16;2.22;;;2.03;;
78646;SDS011;67961;43.460;3.762;2023-05-21T14:06:43;3.00;;;2.05;;
78646;SDS011;67961;43.460;3.762;2023-05-21T14:09:09;4.13;;;2.08;;
78646;SDS011;67961;43.460;3.762;2023-05-21T14:11:35;2.10;;;1.90;;
78646;SDS011;67961;43.460;3.762;2023-05-21T14:14:01;3.30;;;2.00;;
78646;SDS011;67961;43.460;3.762;2023-05-21T14:16:27;2.00;;;1.90;;
78646;SDS011;67961;43.460;3.762;2023-05-21T14:18:53;1.70;;;1.60;;
78646;SDS011;67961;43.460;3.762;2023-05-21T14:21:19;2.05;;;1.85;;
78646;SDS011;67961;43.460;3.762;2023-05-21T14:23:45;1.92;;;1.80;;
78646;SDS011;67961;43.460;3.762;2023-05-21T14:26:12;2.05;;;1.85;;
78646;SDS011;67961;43.460;3.762;2023-05-21T14:28:38;1.80;;;1.70;;
78646;SDS011;67961;43.460;3.762;2023-05-21T14:31:04;1.80;;;1.70;;
78646;SDS011;67961;43.460;3.762;2023-05-21T14:33:30;2.20;;;2.00;;
78646;SDS011;67961;43.460;3.762;2023-05-21T14:35:59;2.40;;;1.83;;
78646;SDS011;67961;43.460;3.762;2023-05-21T14:38:25;1.98;;;1.50;;
78646;SDS011;67961;43.460;3.762;2023-05-21T14:40:51;1.90;;;1.80;;
78646;SDS011;67961;43.460;3.762;2023-05-21T14:43:17;2.10;;;1.90;;
78646;SDS011;67961;43.460;3.762;2023-05-21T14:45:43;2.10;;;1.90;;
78646;SDS011;67961;43.460;3.762;2023-05-21T14:48:09;3.70;;;2.20;;
78646;SDS011;67961;43.460;3.762;2023-05-21T14:50:38;2.10;;;1.90;;
78646;SDS011;67961;43.460;3.762;2023-05-21T14:53:08;1.80;;;1.70;;
78646;SDS011;67961;43.460;3.762;2023-05-21T14:55:35;2.20;;;2.03;;
78646;SDS011;67961;43.460;3.762;2023-05-21T14:58:05;1.90;;;1.80;;
78646;SDS011;67961;43.460;3.762;2023-05-21T15:00:31;1.88;;;1.73;;
78646;SDS011;67961;43.460;3.762;2023-05-21T15:02:58;1.80;;;1.70;;
78646;SDS011;67961;43.460;3.762;2023-05-21T15:05:24;2.20;;;2.00;;
78646;SDS011;67961;43.460;3.762;2023-05-21T15:07:52;2.00;;;1.90;;
78646;SDS011;67961;43.460;3.762;2023-05-21T15:10:21;2.10;;;1.90;;
78646;SDS011;67961;43.460;3.762;2023-05-21T15:12:51;4.70;;;1.88;;
78646;SDS011;67961;43.460;3.762;2023-05-21T15:15:17;1.88;;;1.77;;
78646;SDS011;67961;43.460;3.762;2023-05-21T15:17:45;2.88;;;2.00;;
78646;SDS011;67961;43.460;3.762;2023-05-21T15:20:11;2.17;;;2.00;;
78646;SDS011;67961;43.460;3.762;2023-05-21T15:22:37;1.70;;;1.60;;
78646;SDS011;67961;43.460;3.762;2023-05-21T15:25:03;2.15;;;1.92;;
78646;SDS011;67961;43.460;3.762;2023-05-21T15:27:29;1.90;;;1.80;;
78646;SDS011;67961;43.460;3.762;2023-05-21T15:29:54;2.33;;;1.88;;
78646;SDS011;67961;43.460;3.762;2023-05-21T15:32:20;4.13;;;2.30;;